Terminal Aerodrome Forecast
Issued by NWS Sioux Falls, SD

Home | Current Version | Previous Version | Text Only | Print | Product List | Glossary On
Versions: 1 2 3 4 5 6 7 8 9 10 11 12 13 14 15
000
FTUS43 KFSD 211751 AAC
TAFSUX
TAF AMD
KSUX 211751Z 2118/2218 30019KT P6SM SCT030 BKN045
     FM211900 30018G22KT P6SM SCT060
     FM212200 30015G21KT P6SM FEW250
     FM220000 30010KT P6SM FEW250
     FM220700 21007KT P6SM SCT200 WS014/21040KT
     FM220900 22009KT P6SM SCT200
     FM221400 25007KT P6SM FEW250=

USA.gov is the U.S. government's official web portal to all federal, state and local government web resources and services.